This is the latest recevied weather packets stored in our database for station/object EA3HRE-10. If no packets are shown the sender has not sent any weather packets the latest 10 day(s).
| Time | Temp. | Humidity | Pressure | Rain* | Wind** | Luminosity | Snow |
|---|---|---|---|---|---|---|---|
| 1787917260 | 29.44° C | 32% | 1017.6 hPa | - | - | - | - |
| 1787916360 | 28.89° C | 33% | 1017.7 hPa | - | - | - | - |
| 1787915496 | 28.89° C | 33% | 1017.9 hPa | - | - | - | - |
| 1787915468 | 28.89° C | 33% | 1017.9 hPa | - | - | - | - |
| 1787915460 | 28.89° C | 33% | 1017.9 hPa | - | - | - | - |
| 1787914560 | 28.33° C | 34% | 1017.9 hPa | - | - | - | - |
| 1787913660 | 28.33° C | 34% | 1017.9 hPa | - | - | - | - |
| 1787912760 | 28.33° C | 34% | 1017.7 hPa | - | - | - | - |
| 1787911860 | 28.33° C | 33% | 1017.4 hPa | - | - | - | - |
| 1787910960 | 28.33° C | 34% | 1017.6 hPa | - | - | - | - |
| 1787910060 | 27.78° C | 34% | 1017.8 hPa | - | - | - | - |
| 1787909159 | 27.78° C | 34% | 1018 hPa | - | - | - | - |
| 1787908257 | 27.22° C | 38% | 1017.7 hPa | - | - | - | - |
| 1787907359 | 27.22° C | 40% | 1017.7 hPa | - | - | - | - |
| 1787906899 | 26.67° C | 42% | 1017.6 hPa | - | - | - | - |
| 1787905998 | 26.67° C | 44% | 1017.5 hPa | - | - | - | - |
| 1787882406 | 27.22° C | 34% | 1014.7 hPa | - | - | - | - |
| 1787881506 | 27.22° C | 35% | 1014.5 hPa | - | - | - | - |
| 1787880613 | 27.22° C | 38% | 1015 hPa | - | - | - | - |
| 1787880606 | 27.22° C | 38% | 1015 hPa | - | - | - | - |
| 1787879706 | 27.22° C | 43% | 1015 hPa | - | - | - | - |
| 1787878805 | 27.78° C | 44% | 1015.4 hPa | - | - | - | - |
| 1787877905 | 27.78° C | 45% | 1015.4 hPa | - | - | - | - |
| 1787877005 | 27.78° C | 45% | 1014.7 hPa | - | - | - | - |
| 1787876105 | 27.78° C | 50% | 1014.4 hPa | - | - | - | - |
* Rain since midnight (hover to see other rain measurements)
** Current wind speed in m/s (hover to see current wind gust speed)